Time;durP1;ratioP1;P1;durP2;ratioP2;P2;SDS_P1;SDS_P2;PMS_P1;PMS_P2;Temp;Humidity;BMP_temperature;BMP_pressure;BME280_temperature;BME280_humidity;BME280_pressure;Samples;Min_cycle;Max_cycle;Signal;HPM_P1;HPM_P2
2022/05/23 00:02:06;;;;;;;6.07;3.30;;;;;;;;;;5015872;28;20516;-58
2022/05/23 00:04:31;;;;;;;11.25;3.58;;;;;;;;;;5032585;28;20474;-56
2022/05/23 00:06:57;;;;;;;6.32;3.40;;;;;;;;;;5033975;28;20043;-58
2022/05/23 00:09:24;;;;;;;8.50;3.40;;;;;;;;;;5032770;28;20056;-55
2022/05/23 00:11:49;;;;;;;8.18;3.42;;;;;;;;;;5033585;28;20116;-56
2022/05/23 00:14:17;;;;;;;6.28;3.53;;;;;;;;;;5012596;28;20124;-58
2022/05/23 00:16:46;;;;;;;9.93;3.28;;;;;;;;;;5033410;28;20048;-56
2022/05/23 00:19:13;;;;;;;7.78;3.60;;;;;;;;;;5002573;28;20609;-56
2022/05/23 00:21:41;;;;;;;6.43;3.33;;;;;;;;;;5032014;28;20045;-57
2022/05/23 00:24:10;;;;;;;10.57;3.88;;;;;;;;;;5024495;28;20030;-57
2022/05/23 00:26:36;;;;;;;7.63;3.85;;;;;;;;;;5031331;28;20041;-53
2022/05/23 00:29:03;;;;;;;8.32;3.63;;;;;;;;;;5024336;28;20038;-57
2022/05/23 00:31:28;;;;;;;7.65;4.10;;;;;;;;;;5030927;28;20044;-56
2022/05/23 00:36:38;;;;;;;7.65;4.18;;;;;;;;;;5027081;28;20557;-57
2022/05/23 00:39:04;;;;;;;10.43;4.22;;;;;;;;;;5009127;28;20119;-58
2022/05/23 00:44:31;;;;;;;7.72;4.15;;;;;;;;;;5024498;28;20052;-57
2022/05/23 00:47:00;;;;;;;8.70;4.40;;;;;;;;;;5030260;28;20021;-59
2022/05/23 00:49:34;;;;;;;6.95;4.30;;;;;;;;;;5021169;28;20088;-55
2022/05/23 00:52:05;;;;;;;7.93;4.10;;;;;;;;;;5012195;28;20069;-54
2022/05/23 00:54:35;;;;;;;6.57;4.05;;;;;;;;;;5020779;28;20091;-58
2022/05/23 00:57:01;;;;;;;8.13;4.20;;;;;;;;;;5014031;28;20040;-57
2022/05/23 00:59:30;;;;;;;8.57;4.30;;;;;;;;;;5027142;28;20095;-57
2022/05/23 01:01:56;;;;;;;9.00;4.28;;;;;;;;;;5032118;28;20445;-59
2022/05/23 01:04:23;;;;;;;11.95;4.82;;;;;;;;;;5031883;28;20033;-58
2022/05/23 01:06:48;;;;;;;10.82;4.85;;;;;;;;;;5033695;28;20190;-58
2022/05/23 01:09:14;;;;;;;7.32;4.50;;;;;;;;;;5011773;28;20033;-56
2022/05/23 01:11:39;;;;;;;10.13;4.80;;;;;;;;;;5033586;28;20045;-57
2022/05/23 01:14:05;;;;;;;10.40;5.13;;;;;;;;;;5029126;28;20056;-57
2022/05/23 01:16:31;;;;;;;8.55;5.15;;;;;;;;;;5032211;28;20033;-58
2022/05/23 01:18:56;;;;;;;10.35;4.95;;;;;;;;;;5025201;28;20546;-58
2022/05/23 01:21:41;;;;;;;8.55;5.05;;;;;;;;;;5032873;28;20028;-58
2022/05/23 01:24:14;;;;;;;10.52;5.53;;;;;;;;;;5029970;28;20025;-58
2022/05/23 01:26:39;;;;;;;10.25;5.30;;;;;;;;;;5033451;28;20399;-57
2022/05/23 01:29:14;;;;;;;8.65;5.07;;;;;;;;;;5013698;28;20049;-58
2022/05/23 01:31:41;;;;;;;10.90;5.75;;;;;;;;;;5013350;28;20034;-56
2022/05/23 01:34:06;;;;;;;10.95;5.32;;;;;;;;;;5026999;28;20033;-57
2022/05/23 01:36:32;;;;;;;10.73;5.20;;;;;;;;;;5014324;28;20029;-58
2022/05/23 01:38:57;;;;;;;8.77;5.00;;;;;;;;;;5021342;28;20048;-60
2022/05/23 01:41:23;;;;;;;11.18;5.47;;;;;;;;;;5020899;28;20034;-58
2022/05/23 01:43:48;;;;;;;7.95;4.97;;;;;;;;;;5027552;28;20040;-57
2022/05/23 01:46:13;;;;;;;11.07;5.45;;;;;;;;;;5022601;28;20026;-58
2022/05/23 01:48:39;;;;;;;9.40;5.57;;;;;;;;;;5027549;28;20047;-58
2022/05/23 01:51:04;;;;;;;11.27;5.40;;;;;;;;;;5022877;28;20115;-59
2022/05/23 01:53:30;;;;;;;9.70;5.00;;;;;;;;;;5028226;28;20042;-57
2022/05/23 01:55:57;;;;;;;8.82;5.85;;;;;;;;;;5007195;28;20053;-58
2022/05/23 02:01:13;;;;;;;8.52;5.25;;;;;;;;;;5028864;28;20041;-58
2022/05/23 02:03:38;;;;;;;9.27;5.28;;;;;;;;;;5027104;28;20030;-58
2022/05/23 02:06:04;;;;;;;9.02;5.15;;;;;;;;;;5031701;28;20076;-58
2022/05/23 02:08:29;;;;;;;12.75;5.80;;;;;;;;;;5013092;28;20079;-56
2022/05/23 02:10:54;;;;;;;8.93;4.97;;;;;;;;;;5032219;28;20529;-57
2022/05/23 02:13:20;;;;;;;7.70;5.30;;;;;;;;;;5010883;28;20293;-57
2022/05/23 02:15:45;;;;;;;9.05;5.70;;;;;;;;;;5032345;28;20035;-57
2022/05/23 02:18:10;;;;;;;9.07;5.30;;;;;;;;;;5022763;28;20033;-57
2022/05/23 02:20:36;;;;;;;9.02;5.00;;;;;;;;;;5012474;28;20455;-58
2022/05/23 02:23:01;;;;;;;9.70;5.60;;;;;;;;;;5014720;28;20116;-58
2022/05/23 02:25:27;;;;;;;9.30;5.65;;;;;;;;;;5006127;28;20029;-56
2022/05/23 02:27:54;;;;;;;10.40;5.80;;;;;;;;;;5014299;28;20036;-59
2022/05/23 02:30:20;;;;;;;12.70;5.40;;;;;;;;;;5030313;28;20161;-57
2022/05/23 02:32:45;;;;;;;9.45;5.72;;;;;;;;;;5030054;28;20413;-57
2022/05/23 02:35:12;;;;;;;12.18;5.43;;;;;;;;;;5030117;28;20029;-58
2022/05/23 02:37:38;;;;;;;9.93;5.72;;;;;;;;;;5029642;28;20037;-57
2022/05/23 02:40:04;;;;;;;11.65;5.45;;;;;;;;;;5030995;28;20033;-59
2022/05/23 02:42:29;;;;;;;14.15;5.40;;;;;;;;;;5029707;28;20112;-58
2022/05/23 02:44:55;;;;;;;11.98;5.97;;;;;;;;;;5029794;28;20116;-54
2022/05/23 02:47:20;;;;;;;10.77;5.80;;;;;;;;;;5027040;28;20527;-57
2022/05/23 02:49:47;;;;;;;8.80;5.40;;;;;;;;;;5019108;28;20077;-56
2022/05/23 02:52:12;;;;;;;9.73;5.88;;;;;;;;;;5029776;28;20072;-57
2022/05/23 02:54:37;;;;;;;8.80;6.00;;;;;;;;;;5026364;28;20030;-56
2022/05/23 02:57:04;;;;;;;8.23;5.60;;;;;;;;;;5029794;28;20039;-59
2022/05/23 02:59:29;;;;;;;10.70;5.68;;;;;;;;;;5023159;28;20029;-58
2022/05/23 03:04:39;;;;;;;10.07;5.32;;;;;;;;;;5011799;28;20084;-58
2022/05/23 03:07:05;;;;;;;8.65;5.53;;;;;;;;;;5010239;28;20383;-60
2022/05/23 03:09:32;;;;;;;9.55;5.20;;;;;;;;;;5011830;28;20426;-61
2022/05/23 03:11:59;;;;;;;9.10;5.45;;;;;;;;;;5012419;28;20083;-59
2022/05/23 03:14:26;;;;;;;9.35;5.38;;;;;;;;;;5029373;28;20179;-59
2022/05/23 03:16:51;;;;;;;9.63;5.75;;;;;;;;;;5032492;28;20084;-58
2022/05/23 03:19:17;;;;;;;11.07;6.13;;;;;;;;;;5017416;28;20045;-59
2022/05/23 03:27:10;;;;;;;10.18;5.40;;;;;;;;;;5027208;28;20035;-59
2022/05/23 03:29:35;;;;;;;10.85;5.32;;;;;;;;;;5034494;28;20108;-58
2022/05/23 03:32:01;;;;;;;10.15;5.25;;;;;;;;;;5032024;28;20045;-58
2022/05/23 03:34:27;;;;;;;10.48;5.95;;;;;;;;;;5014817;28;20036;-58
2022/05/23 03:36:52;;;;;;;10.07;5.55;;;;;;;;;;5015477;28;20025;-60
2022/05/23 03:39:18;;;;;;;12.18;6.00;;;;;;;;;;5029722;28;20502;-58
2022/05/23 03:41:43;;;;;;;12.82;5.55;;;;;;;;;;5030010;28;20033;-60
2022/05/23 03:44:09;;;;;;;9.18;5.45;;;;;;;;;;5032732;28;20452;-59
2022/05/23 03:46:35;;;;;;;9.50;5.70;;;;;;;;;;5015815;28;20390;-58
2022/05/23 03:49:02;;;;;;;8.38;5.43;;;;;;;;;;5034807;28;20059;-58
2022/05/23 03:51:28;;;;;;;9.52;5.88;;;;;;;;;;5031737;28;20033;-59
2022/05/23 03:53:54;;;;;;;10.02;6.10;;;;;;;;;;5032908;28;20112;-58
2022/05/23 03:56:19;;;;;;;9.60;5.80;;;;;;;;;;5032936;28;20125;-59
2022/05/23 03:58:45;;;;;;;9.75;6.05;;;;;;;;;;5022548;28;20040;-59
2022/05/23 04:01:18;;;;;;;11.30;6.13;;;;;;;;;;5033581;28;20108;-58
2022/05/23 04:03:44;;;;;;;11.27;5.95;;;;;;;;;;5012645;28;20038;-58
2022/05/23 04:06:09;;;;;;;12.60;5.82;;;;;;;;;;5033029;28;20052;-59
2022/05/23 04:08:35;;;;;;;11.85;5.90;;;;;;;;;;5029752;28;20057;-59
2022/05/23 04:11:02;;;;;;;13.38;6.20;;;;;;;;;;5032500;28;20429;-59
2022/05/23 04:13:28;;;;;;;10.25;6.10;;;;;;;;;;5015326;28;20125;-58
2022/05/23 04:15:54;;;;;;;9.30;5.97;;;;;;;;;;5016619;28;20394;-60
2022/05/23 04:18:19;;;;;;;10.95;6.10;;;;;;;;;;5033923;28;20069;-56
2022/05/23 04:20:45;;;;;;;9.50;5.50;;;;;;;;;;5032426;28;20061;-57
2022/05/23 04:23:10;;;;;;;10.13;5.75;;;;;;;;;;5033873;28;20030;-59
2022/05/23 04:25:47;;;;;;;10.60;5.53;;;;;;;;;;5032464;28;20029;-60
2022/05/23 04:28:14;;;;;;;10.30;6.13;;;;;;;;;;5029691;28;20044;-58
2022/05/23 04:30:39;;;;;;;9.40;5.47;;;;;;;;;;5033322;28;20562;-58
2022/05/23 04:35:50;;;;;;;9.25;5.57;;;;;;;;;;5030907;28;20180;-60
2022/05/23 04:38:16;;;;;;;9.52;5.53;;;;;;;;;;4995587;28;20037;-56
2022/05/23 04:40:42;;;;;;;12.15;5.07;;;;;;;;;;5021122;28;20037;-59
2022/05/23 04:43:07;;;;;;;10.95;5.32;;;;;;;;;;5034225;28;20033;-60
2022/05/23 04:45:33;;;;;;;8.77;5.00;;;;;;;;;;5033931;28;20029;-61
2022/05/23 04:50:42;;;;;;;9.07;5.45;;;;;;;;;;5033506;28;20765;-59
2022/05/23 04:53:08;;;;;;;9.02;5.10;;;;;;;;;;5033893;28;20025;-60
2022/05/23 04:55:35;;;;;;;8.48;5.25;;;;;;;;;;5032876;28;20472;-60
2022/05/23 04:58:01;;;;;;;11.38;5.70;;;;;;;;;;5034079;28;20112;-59
2022/05/23 05:00:29;;;;;;;8.98;5.53;;;;;;;;;;5014509;28;20105;-60
2022/05/23 05:02:59;;;;;;;8.45;5.10;;;;;;;;;;5013785;28;20064;-59
2022/05/23 05:05:25;;;;;;;9.95;5.60;;;;;;;;;;5026304;28;20049;-58
2022/05/23 05:07:51;;;;;;;7.95;5.30;;;;;;;;;;5022016;28;20041;-58
2022/05/23 05:10:16;;;;;;;8.25;5.50;;;;;;;;;;5025873;28;20029;-59
2022/05/23 05:12:42;;;;;;;9.23;5.20;;;;;;;;;;5013528;28;20029;-60
2022/05/23 05:15:08;;;;;;;13.45;5.30;;;;;;;;;;5027547;28;20034;-60
2022/05/23 05:17:33;;;;;;;10.15;5.45;;;;;;;;;;5025266;28;20037;-60
2022/05/23 05:19:59;;;;;;;9.75;5.40;;;;;;;;;;5006160;28;20355;-60
2022/05/23 05:22:24;;;;;;;9.02;5.72;;;;;;;;;;5029697;28;20160;-61
2022/05/23 05:24:49;;;;;;;10.23;5.07;;;;;;;;;;5026945;28;20033;-60
2022/05/23 05:27:15;;;;;;;9.75;5.50;;;;;;;;;;5030667;28;20025;-61
2022/05/23 05:29:40;;;;;;;8.75;5.45;;;;;;;;;;5021805;28;20410;-62
2022/05/23 05:32:25;;;;;;;8.65;5.80;;;;;;;;;;5032828;28;20097;-61
2022/05/23 05:34:57;;;;;;;10.50;5.70;;;;;;;;;;5024380;28;20164;-60
2022/05/23 05:37:30;;;;;;;9.48;5.28;;;;;;;;;;5012312;28;20041;-61
2022/05/23 05:40:02;;;;;;;8.10;5.05;;;;;;;;;;5020211;28;20104;-60
2022/05/23 05:42:34;;;;;;;10.02;5.60;;;;;;;;;;5030727;28;20025;-61
2022/05/23 05:45:07;;;;;;;12.98;5.10;;;;;;;;;;5031790;28;20048;-60
2022/05/23 05:47:36;;;;;;;9.57;5.47;;;;;;;;;;5031720;28;20088;-60
2022/05/23 05:50:07;;;;;;;10.13;5.15;;;;;;;;;;5022503;28;20129;-60
2022/05/23 05:52:34;;;;;;;9.13;5.38;;;;;;;;;;5016921;28;20025;-60
2022/05/23 05:55:01;;;;;;;11.98;5.22;;;;;;;;;;5026227;28;20481;-59
2022/05/23 05:57:27;;;;;;;11.00;5.00;;;;;;;;;;5030550;28;20037;-60
2022/05/23 05:59:53;;;;;;;9.05;5.40;;;;;;;;;;5030175;28;20044;-59
2022/05/23 06:02:19;;;;;;;7.60;4.95;;;;;;;;;;5021911;28;20034;-59
2022/05/23 06:04:45;;;;;;;8.85;5.30;;;;;;;;;;5012545;28;20042;-59
2022/05/23 06:12:48;;;;;;;9.23;5.30;;;;;;;;;;5032293;28;20044;-59
2022/05/23 06:15:14;;;;;;;8.35;4.75;;;;;;;;;;5014946;28;20030;-59
2022/05/23 06:17:42;;;;;;;7.53;4.95;;;;;;;;;;5017362;28;20044;-60
2022/05/23 06:20:08;;;;;;;8.10;4.60;;;;;;;;;;5012252;28;20033;-59
2022/05/23 06:22:34;;;;;;;7.35;4.70;;;;;;;;;;5025917;28;20033;-60
2022/05/23 06:25:00;;;;;;;10.30;5.15;;;;;;;;;;5012376;28;20152;-59
2022/05/23 06:27:26;;;;;;;8.60;4.75;;;;;;;;;;5023789;28;20112;-60
2022/05/23 06:29:51;;;;;;;8.52;4.80;;;;;;;;;;5019428;28;20485;-59
2022/05/23 06:32:16;;;;;;;9.38;5.10;;;;;;;;;;5028510;28;20389;-60
2022/05/23 06:34:42;;;;;;;9.70;4.95;;;;;;;;;;5028493;28;20029;-59
2022/05/23 06:37:07;;;;;;;11.18;5.03;;;;;;;;;;5013154;28;20037;-59
2022/05/23 06:39:33;;;;;;;10.73;4.82;;;;;;;;;;5016228;28;20034;-60
2022/05/23 06:41:58;;;;;;;7.65;4.78;;;;;;;;;;5031004;28;20112;-58
2022/05/23 06:44:23;;;;;;;8.00;5.57;;;;;;;;;;5025717;28;20386;-60
2022/05/23 06:46:49;;;;;;;9.90;5.40;;;;;;;;;;5019809;28;20087;-59
2022/05/23 06:49:14;;;;;;;9.63;5.30;;;;;;;;;;5016482;28;20037;-60
2022/05/23 06:51:41;;;;;;;9.00;4.97;;;;;;;;;;5011283;28;20040;-59
2022/05/23 06:54:06;;;;;;;13.90;4.97;;;;;;;;;;5016978;28;20040;-59
2022/05/23 06:56:32;;;;;;;8.98;4.50;;;;;;;;;;5016504;28;20034;-59
2022/05/23 06:58:58;;;;;;;8.30;4.95;;;;;;;;;;5014157;28;20048;-59
2022/05/23 07:01:23;;;;;;;8.88;4.97;;;;;;;;;;5010752;28;20462;-59
2022/05/23 07:03:49;;;;;;;10.15;4.30;;;;;;;;;;5005819;28;20489;-59
2022/05/23 07:14:26;;;;;;;6.47;3.83;;;;;;;;;;5029738;28;20091;-62
2022/05/23 07:16:53;;;;;;;7.63;4.10;;;;;;;;;;5031404;28;20029;-62
2022/05/23 07:19:19;;;;;;;7.55;4.43;;;;;;;;;;5019563;28;20061;-60
2022/05/23 07:21:44;;;;;;;15.65;3.63;;;;;;;;;;5014630;28;20712;-61
2022/05/23 07:24:09;;;;;;;6.43;3.40;;;;;;;;;;5027073;28;20509;-61
2022/05/23 07:26:37;;;;;;;7.88;3.50;;;;;;;;;;5029339;28;20033;-61
2022/05/23 07:29:02;;;;;;;10.20;3.25;;;;;;;;;;5023276;28;20466;-61
2022/05/23 07:31:29;;;;;;;5.32;3.40;;;;;;;;;;5026621;28;20036;-61
2022/05/23 07:33:54;;;;;;;7.00;3.30;;;;;;;;;;5027821;28;20037;-61
2022/05/23 07:36:19;;;;;;;8.50;3.25;;;;;;;;;;5019877;28;20075;-61
2022/05/23 07:38:45;;;;;;;10.27;3.55;;;;;;;;;;5029682;28;20112;-60
2022/05/23 07:41:11;;;;;;;11.13;3.17;;;;;;;;;;5021995;28;20042;-61
2022/05/23 07:43:39;;;;;;;7.15;3.28;;;;;;;;;;5011423;28;20042;-62
2022/05/23 07:46:09;;;;;;;6.05;3.38;;;;;;;;;;5010862;28;20458;-61
2022/05/23 07:48:37;;;;;;;6.90;3.30;;;;;;;;;;5030232;28;20111;-61
2022/05/23 07:51:03;;;;;;;7.13;3.08;;;;;;;;;;5029680;28;20060;-61
2022/05/23 08:01:40;;;;;;;6.57;3.10;;;;;;;;;;5014332;28;20104;-61
2022/05/23 08:04:08;;;;;;;6.47;3.10;;;;;;;;;;5022298;28;20033;-61
2022/05/23 08:06:33;;;;;;;7.53;3.35;;;;;;;;;;5013811;28;20421;-61
2022/05/23 08:08:59;;;;;;;8.90;3.08;;;;;;;;;;5014555;28;20558;-61
2022/05/23 08:11:24;;;;;;;7.57;3.25;;;;;;;;;;5013671;28;20025;-62
2022/05/23 08:13:53;;;;;;;10.32;3.28;;;;;;;;;;5028836;28;20026;-62
2022/05/23 08:16:19;;;;;;;7.88;3.03;;;;;;;;;;5023200;28;20030;-62
2022/05/23 08:18:44;;;;;;;5.13;3.00;;;;;;;;;;4996217;28;20486;-62
2022/05/23 08:21:09;;;;;;;7.22;3.10;;;;;;;;;;5018161;28;20037;-61
2022/05/23 08:23:35;;;;;;;8.27;3.10;;;;;;;;;;5033063;28;20106;-61
2022/05/23 08:26:00;;;;;;;4.63;3.08;;;;;;;;;;5026483;28;20390;-60
2022/05/23 08:28:26;;;;;;;6.90;3.15;;;;;;;;;;5013669;28;20041;-61
2022/05/23 08:30:53;;;;;;;7.03;2.90;;;;;;;;;;5031096;28;20044;-61
2022/05/23 08:33:19;;;;;;;9.30;2.95;;;;;;;;;;5033047;28;20539;-61
2022/05/23 08:35:44;;;;;;;8.25;3.13;;;;;;;;;;5032460;28;20037;-61
2022/05/23 08:38:09;;;;;;;7.65;3.28;;;;;;;;;;5033074;28;20037;-61
2022/05/23 08:40:55;;;;;;;5.97;2.88;;;;;;;;;;5030761;28;20166;-61
2022/05/23 08:43:28;;;;;;;8.75;2.88;;;;;;;;;;5013494;28;20046;-61
2022/05/23 08:45:56;;;;;;;4.82;3.00;;;;;;;;;;5021348;28;20033;-61
2022/05/23 08:48:53;;;;;;;6.28;2.90;;;;;;;;;;5014829;28;20122;-61
2022/05/23 08:51:28;;;;;;;5.90;2.80;;;;;;;;;;5034193;28;20046;-61
2022/05/23 08:54:03;;;;;;;6.82;2.80;;;;;;;;;;5025597;28;20033;-61
2022/05/23 08:56:37;;;;;;;8.48;2.90;;;;;;;;;;5032778;28;20454;-62
2022/05/23 08:59:11;;;;;;;7.85;3.08;;;;;;;;;;5014178;28;20026;-59
2022/05/23 09:01:51;;;;;;;6.15;2.90;;;;;;;;;;5012856;28;20026;-63
2022/05/23 09:04:51;;;;;;;5.50;2.72;;;;;;;;;;5014174;28;20037;-59
2022/05/23 09:07:44;;;;;;;4.50;2.58;;;;;;;;;;5014648;28;20109;-62
2022/05/23 09:10:27;;;;;;;5.38;2.60;;;;;;;;;;5032907;28;20041;-60
2022/05/23 09:12:53;;;;;;;4.90;2.60;;;;;;;;;;5030188;28;20033;-59
2022/05/23 09:15:20;;;;;;;4.45;2.60;;;;;;;;;;5014536;28;20030;-59
2022/05/23 09:17:50;;;;;;;5.07;2.60;;;;;;;;;;5024568;28;20043;-60
2022/05/23 09:20:27;;;;;;;5.68;2.70;;;;;;;;;;5031886;28;20388;-59
2022/05/23 09:22:57;;;;;;;3.75;2.63;;;;;;;;;;5031439;28;20041;-60
2022/05/23 09:25:25;;;;;;;4.68;2.50;;;;;;;;;;5024257;28;20041;-61
2022/05/23 09:28:00;;;;;;;6.47;2.60;;;;;;;;;;4995980;28;20367;-60
2022/05/23 09:30:27;;;;;;;5.07;2.60;;;;;;;;;;5030090;28;20064;-61
2022/05/23 09:33:01;;;;;;;4.10;2.55;;;;;;;;;;5021202;28;20038;-61
2022/05/23 09:35:48;;;;;;;7.82;2.80;;;;;;;;;;5032031;28;20470;-62
2022/05/23 09:38:26;;;;;;;3.83;2.35;;;;;;;;;;5018265;28;20057;-61
2022/05/23 09:40:53;;;;;;;5.57;2.85;;;;;;;;;;5032629;28;20129;-61
2022/05/23 09:49:09;;;;;;;6.10;2.80;;;;;;;;;;5026806;28;20045;-63
2022/05/23 09:51:46;;;;;;;4.28;2.50;;;;;;;;;;5025579;28;20152;-60
2022/05/23 09:54:18;;;;;;;4.38;2.35;;;;;;;;;;5032367;28;20033;-61
2022/05/23 09:56:44;;;;;;;5.50;2.47;;;;;;;;;;5031247;28;20832;-63
2022/05/23 09:59:25;;;;;;;5.07;2.63;;;;;;;;;;5032805;28;20030;-63
2022/05/23 10:01:50;;;;;;;3.88;2.50;;;;;;;;;;5032524;28;20113;-62
2022/05/23 10:04:28;;;;;;;5.80;2.55;;;;;;;;;;5031177;28;20459;-60
2022/05/23 10:06:54;;;;;;;4.18;2.45;;;;;;;;;;5014935;28;20029;-61
2022/05/23 10:09:35;;;;;;;7.47;2.60;;;;;;;;;;5031066;28;20185;-62
2022/05/23 10:12:06;;;;;;;5.05;2.90;;;;;;;;;;5032419;28;20038;-61
2022/05/23 10:15:24;;;;;;;3.97;2.50;;;;;;;;;;5031673;28;20044;-62
2022/05/23 10:18:07;;;;;;;3.58;2.55;;;;;;;;;;5022242;28;20057;-61
2022/05/23 10:20:37;;;;;;;5.30;2.50;;;;;;;;;;5011818;28;20485;-61
2022/05/23 10:23:15;;;;;;;5.22;2.60;;;;;;;;;;5017332;28;20041;-61
2022/05/23 10:25:52;;;;;;;5.47;2.65;;;;;;;;;;5023698;28;20037;-61
2022/05/23 10:28:46;;;;;;;3.08;2.25;;;;;;;;;;5021672;28;20084;-61
2022/05/23 10:31:21;;;;;;;5.85;2.63;;;;;;;;;;5030600;28;20037;-61
2022/05/23 10:33:53;;;;;;;5.68;2.63;;;;;;;;;;5017445;28;20030;-60
2022/05/23 10:36:24;;;;;;;6.43;2.45;;;;;;;;;;5019142;28;20060;-60
2022/05/23 10:44:37;;;;;;;4.22;2.38;;;;;;;;;;5013855;28;20103;-61
2022/05/23 10:47:39;;;;;;;5.05;2.42;;;;;;;;;;5026020;28;20103;-62
2022/05/23 10:50:44;;;;;;;3.90;2.30;;;;;;;;;;5027827;28;20049;-62
2022/05/23 10:53:09;;;;;;;5.38;2.50;;;;;;;;;;4994491;28;20045;-63
2022/05/23 10:55:55;;;;;;;5.13;2.50;;;;;;;;;;5022181;28;20355;-63
2022/05/23 10:58:30;;;;;;;5.25;2.50;;;;;;;;;;5029966;28;20530;-62
2022/05/23 11:01:14;;;;;;;7.90;2.35;;;;;;;;;;5029194;28;20539;-61
2022/05/23 11:03:56;;;;;;;4.93;2.20;;;;;;;;;;5009853;28;20110;-60
2022/05/23 11:06:37;;;;;;;7.63;2.33;;;;;;;;;;5011253;28;20083;-62
2022/05/23 11:09:25;;;;;;;;;;;;;;;;;;5011772;28;20057;-62
2022/05/23 11:12:03;;;;;;;5.47;2.10;;;;;;;;;;4985495;28;20353;-62
2022/05/23 11:14:28;;;;;;;5.10;2.10;;;;;;;;;;5019022;28;20069;-63
2022/05/23 11:17:15;;;;;;;7.25;2.20;;;;;;;;;;5024445;28;20402;-62
2022/05/23 11:20:11;;;;;;;6.05;2.20;;;;;;;;;;5008719;28;20095;-64
2022/05/23 11:22:47;;;;;;;7.28;2.20;;;;;;;;;;5009805;28;20034;-63
2022/05/23 11:25:28;;;;;;;6.32;2.22;;;;;;;;;;5028512;28;20484;-61
2022/05/23 11:33:48;;;;;;;5.10;2.05;;;;;;;;;;5029761;28;20063;-62
2022/05/23 11:36:23;;;;;;;6.40;2.05;;;;;;;;;;5009654;28;20033;-62
2022/05/23 11:38:50;;;;;;;5.30;2.05;;;;;;;;;;5033989;28;20030;-62
2022/05/23 11:41:32;;;;;;;8.38;2.20;;;;;;;;;;5023823;28;20401;-61
2022/05/23 11:43:59;;;;;;;6.88;2.28;;;;;;;;;;5018348;28;20042;-61
2022/05/23 11:46:27;;;;;;;5.90;2.08;;;;;;;;;;5020632;28;20056;-62
2022/05/23 11:51:40;;;;;;;6.38;2.15;;;;;;;;;;5067887;28;20379;-60
2022/05/23 11:54:10;;;;;;;5.10;1.80;;;;;;;;;;5068119;28;20048;-60
2022/05/23 11:56:44;;;;;;;5.40;2.08;;;;;;;;;;5060411;28;20496;-60
2022/05/23 11:59:31;;;;;;;5.15;2.10;;;;;;;;;;5062768;28;20032;-62
2022/05/23 12:02:12;;;;;;;7.95;2.38;;;;;;;;;;5068562;28;20028;-61
2022/05/23 12:04:50;;;;;;;3.72;1.70;;;;;;;;;;5067125;28;20090;-61
2022/05/23 12:07:31;;;;;;;7.15;2.28;;;;;;;;;;5049783;28;20041;-61
2022/05/23 12:10:20;;;;;;;4.57;1.77;;;;;;;;;;5048778;28;20517;-61
2022/05/23 12:12:48;;;;;;;8.10;2.40;;;;;;;;;;5057600;28;20420;-59
2022/05/23 12:15:42;;;;;;;6.13;1.90;;;;;;;;;;5060189;28;20035;-61
2022/05/23 12:18:10;;;;;;;6.93;2.20;;;;;;;;;;5081235;28;20040;-60
2022/05/23 12:20:46;;;;;;;5.03;1.90;;;;;;;;;;5064873;28;20032;-60
2022/05/23 12:23:36;;;;;;;5.32;2.00;;;;;;;;;;5064608;28;20029;-61
2022/05/23 12:26:10;;;;;;;5.22;2.25;;;;;;;;;;5060624;28;20033;-60
2022/05/23 12:28:57;;;;;;;6.35;2.25;;;;;;;;;;5057360;28;20041;-61
2022/05/23 12:31:30;;;;;;;5.30;2.13;;;;;;;;;;5064682;28;20060;-61
2022/05/23 12:34:07;;;;;;;3.90;2.20;;;;;;;;;;5062169;28;20473;-61
2022/05/23 12:36:53;;;;;;;4.82;1.95;;;;;;;;;;5066435;28;20503;-65
2022/05/23 12:39:49;;;;;;;4.95;2.20;;;;;;;;;;5066657;28;20044;-63
2022/05/23 12:42:27;;;;;;;6.07;2.20;;;;;;;;;;5062179;28;20021;-60
2022/05/23 12:45:23;;;;;;;2.83;2.00;;;;;;;;;;5048339;28;20072;-62
2022/05/23 12:48:10;;;;;;;3.97;2.13;;;;;;;;;;5055541;28;20032;-62
2022/05/23 12:50:51;;;;;;;4.40;2.03;;;;;;;;;;5066886;28;20048;-61
2022/05/23 12:53:40;;;;;;;5.60;2.35;;;;;;;;;;5066117;28;20029;-62
2022/05/23 12:56:48;;;;;;;4.45;2.45;;;;;;;;;;5050976;28;20477;-61
2022/05/23 12:59:39;;;;;;;5.28;2.00;;;;;;;;;;5060842;28;20515;-61
2022/05/23 13:02:14;;;;;;;4.57;2.30;;;;;;;;;;5040776;28;20037;-62
2022/05/23 13:04:47;;;;;;;4.40;2.00;;;;;;;;;;5048988;28;20045;-64
2022/05/23 13:07:19;;;;;;;3.35;2.00;;;;;;;;;;5035390;28;20080;-63
2022/05/23 13:09:54;;;;;;;4.40;2.30;;;;;;;;;;5033365;28;20037;-62
2022/05/23 13:12:43;;;;;;;7.72;2.20;;;;;;;;;;5049821;28;20363;-63
2022/05/23 13:15:09;;;;;;;5.72;2.40;;;;;;;;;;5039931;28;20037;-63
2022/05/23 13:17:45;;;;;;;3.83;2.13;;;;;;;;;;5032861;28;20029;-63
2022/05/23 13:23:25;;;;;;;4.30;2.30;;;;;;;;;;5050419;28;20052;-63
2022/05/23 13:25:52;;;;;;;4.68;2.45;;;;;;;;;;5043285;28;20064;-63
2022/05/23 13:28:19;;;;;;;6.18;2.10;;;;;;;;;;5049840;28;20033;-63
2022/05/23 13:30:48;;;;;;;5.18;2.20;;;;;;;;;;5053978;28;20061;-62
2022/05/23 13:33:26;;;;;;;6.60;2.35;;;;;;;;;;5055445;28;20116;-62
2022/05/23 13:36:04;;;;;;;4.40;2.40;;;;;;;;;;5054053;28;20040;-62
2022/05/23 13:38:32;;;;;;;7.25;2.70;;;;;;;;;;5037082;28;20430;-62
2022/05/23 13:41:00;;;;;;;5.82;2.40;;;;;;;;;;5034582;28;20033;-62
2022/05/23 13:43:33;;;;;;;6.78;2.78;;;;;;;;;;5046466;28;20048;-61
2022/05/23 13:46:11;;;;;;;8.70;2.70;;;;;;;;;;5047766;28;20115;-61
2022/05/23 13:48:42;;;;;;;3.78;2.38;;;;;;;;;;5032542;28;20026;-60
2022/05/23 13:51:12;;;;;;;4.90;2.47;;;;;;;;;;5032055;28;20049;-63
2022/05/23 13:53:44;;;;;;;4.75;2.78;;;;;;;;;;5050693;28;20044;-62
2022/05/23 13:56:10;;;;;;;3.92;2.85;;;;;;;;;;5033657;28;20041;-61
2022/05/23 13:58:42;;;;;;;4.55;2.90;;;;;;;;;;5032577;28;20029;-61
2022/05/23 14:01:21;;;;;;;7.35;3.20;;;;;;;;;;5047724;28;20465;-63
2022/05/23 14:03:53;;;;;;;5.97;2.92;;;;;;;;;;5052027;28;20037;-61
2022/05/23 14:06:25;;;;;;;6.18;3.03;;;;;;;;;;5033590;28;20037;-61
2022/05/23 14:08:56;;;;;;;5.32;2.88;;;;;;;;;;5032357;28;20021;-61
2022/05/23 14:11:29;;;;;;;;;;;;;;;;;;5052774;28;20111;-61
2022/05/23 14:14:01;;;;;;;6.70;3.25;;;;;;;;;;5031656;28;19993;-62
2022/05/23 14:16:27;;;;;;;7.15;3.38;;;;;;;;;;5032344;28;20378;-61
2022/05/23 14:19:26;;;;;;;7.20;3.67;;;;;;;;;;5048608;28;20029;-62
2022/05/23 14:22:04;;;;;;;6.45;3.50;;;;;;;;;;5032082;28;20045;-61
2022/05/23 14:24:43;;;;;;;6.35;3.17;;;;;;;;;;5031606;28;20029;-62
2022/05/23 14:27:15;;;;;;;6.95;3.50;;;;;;;;;;5035107;28;20180;-60
2022/05/23 14:29:43;;;;;;;6.40;3.30;;;;;;;;;;5041613;28;20021;-60
2022/05/23 14:32:35;;;;;;;10.48;3.60;;;;;;;;;;5048246;28;20044;-60
2022/05/23 14:35:19;;;;;;;8.27;3.67;;;;;;;;;;5050415;28;20033;-60
2022/05/23 14:37:49;;;;;;;8.45;3.60;;;;;;;;;;5047943;28;20052;-61
2022/05/23 14:40:22;;;;;;;8.00;3.78;;;;;;;;;;5039909;28;20050;-60
2022/05/23 14:42:52;;;;;;;7.78;3.67;;;;;;;;;;5043528;28;20484;-61
2022/05/23 14:45:20;;;;;;;8.57;4.10;;;;;;;;;;5050620;28;20044;-60
2022/05/23 14:47:55;;;;;;;8.68;4.25;;;;;;;;;;5037384;28;20037;-60
2022/05/23 14:50:27;;;;;;;6.88;4.07;;;;;;;;;;5035606;28;20060;-60
2022/05/23 14:55:54;;;;;;;8.30;4.30;;;;;;;;;;5048807;28;20528;-59
2022/05/23 15:01:24;;;;;;;6.13;4.37;;;;;;;;;;5057704;28;20449;-60
2022/05/23 15:03:52;;;;;;;7.30;4.40;;;;;;;;;;5047461;28;20423;-60
2022/05/23 15:06:18;;;;;;;6.97;4.50;;;;;;;;;;5051331;28;20090;-59
2022/05/23 15:08:44;;;;;;;8.05;4.90;;;;;;;;;;5059069;28;20361;-59
2022/05/23 15:11:22;;;;;;;7.85;4.90;;;;;;;;;;5051310;28;20422;-60
2022/05/23 15:13:48;;;;;;;9.27;4.80;;;;;;;;;;5048853;28;20397;-59
2022/05/23 15:16:25;;;;;;;9.57;4.72;;;;;;;;;;5050658;28;20103;-60
2022/05/23 15:18:51;;;;;;;6.90;4.22;;;;;;;;;;5044877;28;20057;-60
2022/05/23 15:21:16;;;;;;;7.40;4.22;;;;;;;;;;5061148;28;20454;-59
2022/05/23 15:23:42;;;;;;;7.63;4.07;;;;;;;;;;5059430;28;20266;-59
2022/05/23 15:26:09;;;;;;;8.02;4.35;;;;;;;;;;5037340;28;20029;-58
2022/05/23 15:28:36;;;;;;;8.10;4.35;;;;;;;;;;5047022;28;20132;-59
2022/05/23 15:31:01;;;;;;;8.68;4.53;;;;;;;;;;5043546;28;20056;-57
2022/05/23 15:33:27;;;;;;;8.32;4.40;;;;;;;;;;5041119;28;20446;-57
2022/05/23 15:35:52;;;;;;;9.07;4.38;;;;;;;;;;5047209;28;20029;-56
2022/05/23 15:38:17;;;;;;;6.80;4.40;;;;;;;;;;5031782;28;20030;-57
2022/05/23 15:40:44;;;;;;;7.13;4.70;;;;;;;;;;5033804;28;20064;-58
2022/05/23 15:43:11;;;;;;;10.90;4.43;;;;;;;;;;5042854;28;20486;-58
2022/05/23 15:45:43;;;;;;;6.55;4.32;;;;;;;;;;5038530;28;20043;-59
2022/05/23 15:48:09;;;;;;;7.55;4.22;;;;;;;;;;5048260;28;20048;-58
2022/05/23 15:50:36;;;;;;;9.63;4.80;;;;;;;;;;5047544;28;20048;-57
2022/05/23 15:53:02;;;;;;;8.27;4.43;;;;;;;;;;5036036;28;20136;-58
2022/05/23 15:55:29;;;;;;;10.55;4.60;;;;;;;;;;5030300;28;20140;-58
2022/05/23 15:57:56;;;;;;;7.03;4.75;;;;;;;;;;5047034;28;20033;-57
2022/05/23 16:00:25;;;;;;;8.15;4.63;;;;;;;;;;5047274;28;20047;-58
2022/05/23 16:02:51;;;;;;;9.50;4.68;;;;;;;;;;5050422;28;20052;-57
2022/05/23 16:05:17;;;;;;;7.47;4.72;;;;;;;;;;5049620;28;20401;-59
2022/05/23 16:07:43;;;;;;;10.85;4.78;;;;;;;;;;5049328;28;20037;-58
2022/05/23 16:10:09;;;;;;;9.70;4.68;;;;;;;;;;5034100;28;20042;-59
2022/05/23 16:12:37;;;;;;;7.93;4.80;;;;;;;;;;5030659;28;20104;-57
2022/05/23 16:15:09;;;;;;;8.15;5.00;;;;;;;;;;5044662;28;20102;-58